sensor_id;sensor_type;location;lat;lon;timestamp;P1;durP1;ratioP1;P2;durP2;ratioP2
50683;SDS011;36654;45.042;38.994;2023-02-01T00:01:38;15.25;;;8.85;;
50683;SDS011;36654;45.042;38.994;2023-02-01T00:04:04;15.57;;;8.90;;
50683;SDS011;36654;45.042;38.994;2023-02-01T00:06:30;17.75;;;9.55;;
50683;SDS011;36654;45.042;38.994;2023-02-01T00:08:56;17.63;;;9.55;;
50683;SDS011;36654;45.042;38.994;2023-02-01T00:11:22;21.83;;;11.25;;
50683;SDS011;36654;45.042;38.994;2023-02-01T00:13:48;17.50;;;9.30;;
50683;SDS011;36654;45.042;38.994;2023-02-01T00:18:44;18.95;;;9.43;;
50683;SDS011;36654;45.042;38.994;2023-02-01T00:21:12;18.92;;;9.68;;
50683;SDS011;36654;45.042;38.994;2023-02-01T00:23:39;19.90;;;9.75;;
50683;SDS011;36654;45.042;38.994;2023-02-01T00:26:05;22.30;;;10.70;;
50683;SDS011;36654;45.042;38.994;2023-02-01T00:28:32;19.27;;;9.88;;
50683;SDS011;36654;45.042;38.994;2023-02-01T00:31:02;18.65;;;9.55;;
50683;SDS011;36654;45.042;38.994;2023-02-01T00:33:29;18.48;;;9.88;;
50683;SDS011;36654;45.042;38.994;2023-02-01T00:35:59;16.20;;;8.52;;
50683;SDS011;36654;45.042;38.994;2023-02-01T00:38:27;17.20;;;9.02;;
50683;SDS011;36654;45.042;38.994;2023-02-01T00:40:54;15.27;;;9.57;;
50683;SDS011;36654;45.042;38.994;2023-02-01T00:43:26;18.90;;;9.35;;
50683;SDS011;36654;45.042;38.994;2023-02-01T00:45:51;17.40;;;9.52;;
50683;SDS011;36654;45.042;38.994;2023-02-01T00:48:17;19.85;;;9.93;;
50683;SDS011;36654;45.042;38.994;2023-02-01T00:50:43;18.15;;;8.90;;
50683;SDS011;36654;45.042;38.994;2023-02-01T00:53:09;19.25;;;9.75;;
50683;SDS011;36654;45.042;38.994;2023-02-01T00:55:35;20.30;;;10.07;;
50683;SDS011;36654;45.042;38.994;2023-02-01T00:58:01;25.85;;;11.93;;
50683;SDS011;36654;45.042;38.994;2023-02-01T01:00:26;24.52;;;12.27;;
50683;SDS011;36654;45.042;38.994;2023-02-01T01:02:52;24.90;;;12.00;;
50683;SDS011;36654;45.042;38.994;2023-02-01T01:05:18;22.95;;;11.57;;
50683;SDS011;36654;45.042;38.994;2023-02-01T01:07:44;26.10;;;11.82;;
50683;SDS011;36654;45.042;38.994;2023-02-01T01:10:09;25.23;;;11.93;;
50683;SDS011;36654;45.042;38.994;2023-02-01T01:12:35;23.42;;;12.55;;
50683;SDS011;36654;45.042;38.994;2023-02-01T01:15:01;30.55;;;13.88;;
50683;SDS011;36654;45.042;38.994;2023-02-01T01:17:26;29.15;;;14.35;;
50683;SDS011;36654;45.042;38.994;2023-02-01T01:19:52;27.13;;;13.55;;
50683;SDS011;36654;45.042;38.994;2023-02-01T01:22:18;28.95;;;13.02;;
50683;SDS011;36654;45.042;38.994;2023-02-01T01:24:43;25.92;;;13.32;;
50683;SDS011;36654;45.042;38.994;2023-02-01T01:27:09;27.52;;;13.05;;
50683;SDS011;36654;45.042;38.994;2023-02-01T01:29:34;31.33;;;14.77;;
50683;SDS011;36654;45.042;38.994;2023-02-01T01:32:00;29.60;;;13.30;;
50683;SDS011;36654;45.042;38.994;2023-02-01T01:34:25;36.15;;;15.60;;
50683;SDS011;36654;45.042;38.994;2023-02-01T01:36:51;30.65;;;14.02;;
50683;SDS011;36654;45.042;38.994;2023-02-01T01:39:16;36.45;;;14.88;;
50683;SDS011;36654;45.042;38.994;2023-02-01T01:41:42;33.10;;;14.55;;
50683;SDS011;36654;45.042;38.994;2023-02-01T01:47:21;31.33;;;14.15;;
50683;SDS011;36654;45.042;38.994;2023-02-01T01:49:47;31.05;;;13.48;;
50683;SDS011;36654;45.042;38.994;2023-02-01T01:52:12;30.23;;;13.27;;
50683;SDS011;36654;45.042;38.994;2023-02-01T01:54:40;29.92;;;14.10;;
50683;SDS011;36654;45.042;38.994;2023-02-01T01:57:29;30.20;;;13.70;;
50683;SDS011;36654;45.042;38.994;2023-02-01T02:00:17;29.00;;;14.82;;
50683;SDS011;36654;45.042;38.994;2023-02-01T02:02:46;31.83;;;13.10;;
50683;SDS011;36654;45.042;38.994;2023-02-01T02:05:15;31.35;;;14.02;;
50683;SDS011;36654;45.042;38.994;2023-02-01T02:07:43;29.83;;;12.88;;
50683;SDS011;36654;45.042;38.994;2023-02-01T02:10:13;26.48;;;12.45;;
50683;SDS011;36654;45.042;38.994;2023-02-01T02:12:41;28.90;;;12.65;;
50683;SDS011;36654;45.042;38.994;2023-02-01T02:15:09;29.10;;;13.50;;
50683;SDS011;36654;45.042;38.994;2023-02-01T02:17:41;30.27;;;13.95;;
50683;SDS011;36654;45.042;38.994;2023-02-01T02:22:59;26.75;;;11.55;;
50683;SDS011;36654;45.042;38.994;2023-02-01T02:28:31;24.67;;;10.48;;
50683;SDS011;36654;45.042;38.994;2023-02-01T02:33:47;34.38;;;12.95;;
50683;SDS011;36654;45.042;38.994;2023-02-01T02:53:58;29.60;;;13.13;;
50683;SDS011;36654;45.042;38.994;2023-02-01T02:56:48;27.05;;;11.82;;
50683;SDS011;36654;45.042;38.994;2023-02-01T02:59:34;27.98;;;12.18;;
50683;SDS011;36654;45.042;38.994;2023-02-01T03:02:20;28.40;;;11.75;;
50683;SDS011;36654;45.042;38.994;2023-02-01T03:05:05;30.20;;;12.07;;
50683;SDS011;36654;45.042;38.994;2023-02-01T03:10:27;23.20;;;12.23;;
50683;SDS011;36654;45.042;38.994;2023-02-01T03:13:35;25.33;;;11.23;;
50683;SDS011;36654;45.042;38.994;2023-02-01T03:16:06;30.10;;;11.88;;
50683;SDS011;36654;45.042;38.994;2023-02-01T03:18:36;28.17;;;11.40;;
50683;SDS011;36654;45.042;38.994;2023-02-01T03:21:13;35.13;;;12.70;;
50683;SDS011;36654;45.042;38.994;2023-02-01T03:23:42;34.13;;;12.80;;
50683;SDS011;36654;45.042;38.994;2023-02-01T03:26:11;28.25;;;12.10;;
50683;SDS011;36654;45.042;38.994;2023-02-01T03:28:44;28.23;;;11.90;;
50683;SDS011;36654;45.042;38.994;2023-02-01T03:31:17;29.45;;;11.73;;
50683;SDS011;36654;45.042;38.994;2023-02-01T03:33:42;32.08;;;12.23;;
50683;SDS011;36654;45.042;38.994;2023-02-01T03:46:46;32.85;;;13.07;;
50683;SDS011;36654;45.042;38.994;2023-02-01T03:49:44;29.05;;;12.77;;
50683;SDS011;36654;45.042;38.994;2023-02-01T03:52:18;32.63;;;12.38;;
50683;SDS011;36654;45.042;38.994;2023-02-01T03:54:51;28.30;;;12.35;;
50683;SDS011;36654;45.042;38.994;2023-02-01T03:57:19;28.92;;;11.75;;
50683;SDS011;36654;45.042;38.994;2023-02-01T03:59:51;25.88;;;11.45;;
50683;SDS011;36654;45.042;38.994;2023-02-01T04:02:17;24.20;;;11.52;;
50683;SDS011;36654;45.042;38.994;2023-02-01T04:04:43;32.50;;;12.57;;
50683;SDS011;36654;45.042;38.994;2023-02-01T04:07:08;29.85;;;11.88;;
50683;SDS011;36654;45.042;38.994;2023-02-01T04:09:34;25.95;;;11.93;;
50683;SDS011;36654;45.042;38.994;2023-02-01T04:12:00;24.38;;;11.25;;
50683;SDS011;36654;45.042;38.994;2023-02-01T04:14:25;27.55;;;12.60;;
50683;SDS011;36654;45.042;38.994;2023-02-01T04:16:51;27.15;;;12.38;;
50683;SDS011;36654;45.042;38.994;2023-02-01T04:19:17;28.90;;;12.80;;
50683;SDS011;36654;45.042;38.994;2023-02-01T04:21:42;28.95;;;13.32;;
50683;SDS011;36654;45.042;38.994;2023-02-01T04:24:08;29.23;;;12.73;;
50683;SDS011;36654;45.042;38.994;2023-02-01T04:26:34;27.85;;;12.80;;
50683;SDS011;36654;45.042;38.994;2023-02-01T04:28:59;26.55;;;12.30;;
50683;SDS011;36654;45.042;38.994;2023-02-01T04:31:25;27.13;;;11.85;;
50683;SDS011;36654;45.042;38.994;2023-02-01T04:33:54;28.55;;;13.90;;
50683;SDS011;36654;45.042;38.994;2023-02-01T04:36:22;25.90;;;12.65;;
50683;SDS011;36654;45.042;38.994;2023-02-01T04:38:51;32.55;;;12.73;;
50683;SDS011;36654;45.042;38.994;2023-02-01T04:41:17;29.63;;;12.98;;
50683;SDS011;36654;45.042;38.994;2023-02-01T04:43:47;29.35;;;13.38;;
50683;SDS011;36654;45.042;38.994;2023-02-01T04:46:13;28.50;;;13.52;;
50683;SDS011;36654;45.042;38.994;2023-02-01T04:48:39;33.88;;;14.63;;
50683;SDS011;36654;45.042;38.994;2023-02-01T04:51:04;30.95;;;13.57;;
50683;SDS011;36654;45.042;38.994;2023-02-01T04:53:30;29.58;;;13.73;;
50683;SDS011;36654;45.042;38.994;2023-02-01T04:55:56;32.70;;;14.25;;
50683;SDS011;36654;45.042;38.994;2023-02-01T04:58:22;32.65;;;15.15;;
50683;SDS011;36654;45.042;38.994;2023-02-01T05:00:48;33.60;;;15.18;;
50683;SDS011;36654;45.042;38.994;2023-02-01T05:03:14;36.92;;;15.57;;
50683;SDS011;36654;45.042;38.994;2023-02-01T05:05:40;34.85;;;16.90;;
50683;SDS011;36654;45.042;38.994;2023-02-01T05:08:05;36.97;;;16.58;;
50683;SDS011;36654;45.042;38.994;2023-02-01T05:10:31;37.47;;;17.80;;
50683;SDS011;36654;45.042;38.994;2023-02-01T05:12:56;38.05;;;18.00;;
50683;SDS011;36654;45.042;38.994;2023-02-01T05:15:40;39.45;;;16.13;;
50683;SDS011;36654;45.042;38.994;2023-02-01T05:18:06;33.67;;;14.95;;
50683;SDS011;36654;45.042;38.994;2023-02-01T05:20:32;32.72;;;14.88;;
50683;SDS011;36654;45.042;38.994;2023-02-01T05:22:57;30.88;;;15.55;;
50683;SDS011;36654;45.042;38.994;2023-02-01T05:25:23;33.83;;;14.90;;
50683;SDS011;36654;45.042;38.994;2023-02-01T05:27:48;32.58;;;14.98;;
50683;SDS011;36654;45.042;38.994;2023-02-01T05:30:14;38.75;;;16.63;;
50683;SDS011;36654;45.042;38.994;2023-02-01T05:32:40;33.67;;;15.27;;
50683;SDS011;36654;45.042;38.994;2023-02-01T05:35:06;36.25;;;15.60;;
50683;SDS011;36654;45.042;38.994;2023-02-01T05:37:32;36.40;;;15.27;;
50683;SDS011;36654;45.042;38.994;2023-02-01T05:39:57;35.28;;;15.60;;
50683;SDS011;36654;45.042;38.994;2023-02-01T05:42:23;34.35;;;16.60;;
50683;SDS011;36654;45.042;38.994;2023-02-01T05:44:48;35.72;;;18.08;;
50683;SDS011;36654;45.042;38.994;2023-02-01T05:47:14;37.22;;;16.92;;
50683;SDS011;36654;45.042;38.994;2023-02-01T05:49:40;42.58;;;17.38;;
50683;SDS011;36654;45.042;38.994;2023-02-01T05:52:05;36.10;;;15.80;;
50683;SDS011;36654;45.042;38.994;2023-02-01T05:54:31;36.33;;;15.98;;
50683;SDS011;36654;45.042;38.994;2023-02-01T05:56:56;36.55;;;15.70;;
50683;SDS011;36654;45.042;38.994;2023-02-01T05:59:22;38.33;;;16.45;;
50683;SDS011;36654;45.042;38.994;2023-02-01T06:01:48;34.95;;;16.17;;
50683;SDS011;36654;45.042;38.994;2023-02-01T06:04:13;37.88;;;15.55;;
50683;SDS011;36654;45.042;38.994;2023-02-01T06:06:39;42.17;;;17.15;;
50683;SDS011;36654;45.042;38.994;2023-02-01T06:09:05;35.47;;;14.82;;
50683;SDS011;36654;45.042;38.994;2023-02-01T06:11:30;38.28;;;15.98;;
50683;SDS011;36654;45.042;38.994;2023-02-01T06:13:56;36.05;;;17.05;;
50683;SDS011;36654;45.042;38.994;2023-02-01T06:16:22;42.25;;;17.80;;
50683;SDS011;36654;45.042;38.994;2023-02-01T06:18:48;41.60;;;18.08;;
50683;SDS011;36654;45.042;38.994;2023-02-01T06:21:14;40.78;;;17.10;;
50683;SDS011;36654;45.042;38.994;2023-02-01T06:23:48;33.03;;;15.85;;
50683;SDS011;36654;45.042;38.994;2023-02-01T06:26:15;35.88;;;18.63;;
50683;SDS011;36654;45.042;38.994;2023-02-01T06:28:42;33.88;;;16.40;;
50683;SDS011;36654;45.042;38.994;2023-02-01T06:31:08;33.67;;;15.75;;
50683;SDS011;36654;45.042;38.994;2023-02-01T06:33:34;37.90;;;18.15;;
50683;SDS011;36654;45.042;38.994;2023-02-01T06:36:01;35.53;;;15.85;;
50683;SDS011;36654;45.042;38.994;2023-02-01T06:38:29;36.85;;;16.63;;
50683;SDS011;36654;45.042;38.994;2023-02-01T06:40:55;38.20;;;18.10;;
50683;SDS011;36654;45.042;38.994;2023-02-01T06:43:23;35.95;;;17.60;;
50683;SDS011;36654;45.042;38.994;2023-02-01T06:45:50;41.05;;;16.83;;
50683;SDS011;36654;45.042;38.994;2023-02-01T06:48:17;39.95;;;17.73;;
50683;SDS011;36654;45.042;38.994;2023-02-01T06:50:43;34.50;;;16.65;;
50683;SDS011;36654;45.042;38.994;2023-02-01T06:53:09;39.30;;;17.65;;
50683;SDS011;36654;45.042;38.994;2023-02-01T06:55:34;36.80;;;17.83;;
50683;SDS011;36654;45.042;38.994;2023-02-01T06:58:00;37.60;;;18.50;;
50683;SDS011;36654;45.042;38.994;2023-02-01T07:00:27;35.67;;;18.50;;
50683;SDS011;36654;45.042;38.994;2023-02-01T07:02:53;40.50;;;17.90;;
50683;SDS011;36654;45.042;38.994;2023-02-01T07:05:19;36.63;;;17.85;;
50683;SDS011;36654;45.042;38.994;2023-02-01T07:07:44;39.88;;;18.20;;
50683;SDS011;36654;45.042;38.994;2023-02-01T07:10:10;39.10;;;17.90;;
50683;SDS011;36654;45.042;38.994;2023-02-01T07:12:36;38.10;;;17.27;;
50683;SDS011;36654;45.042;38.994;2023-02-01T07:15:02;34.60;;;17.80;;
50683;SDS011;36654;45.042;38.994;2023-02-01T07:17:28;37.15;;;16.10;;
50683;SDS011;36654;45.042;38.994;2023-02-01T07:19:54;40.20;;;17.67;;
50683;SDS011;36654;45.042;38.994;2023-02-01T07:22:21;42.42;;;18.58;;
50683;SDS011;36654;45.042;38.994;2023-02-01T07:24:47;41.40;;;18.77;;
50683;SDS011;36654;45.042;38.994;2023-02-01T07:27:12;39.15;;;18.00;;
50683;SDS011;36654;45.042;38.994;2023-02-01T07:29:38;41.40;;;16.92;;
50683;SDS011;36654;45.042;38.994;2023-02-01T07:32:04;36.00;;;16.33;;
50683;SDS011;36654;45.042;38.994;2023-02-01T07:34:29;34.25;;;16.00;;
50683;SDS011;36654;45.042;38.994;2023-02-01T07:36:58;31.52;;;16.40;;
50683;SDS011;36654;45.042;38.994;2023-02-01T07:39:24;32.38;;;15.93;;
50683;SDS011;36654;45.042;38.994;2023-02-01T07:41:53;34.85;;;16.63;;
50683;SDS011;36654;45.042;38.994;2023-02-01T07:44:18;33.78;;;15.63;;
50683;SDS011;36654;45.042;38.994;2023-02-01T07:46:47;51.70;;;23.67;;
50683;SDS011;36654;45.042;38.994;2023-02-01T07:49:13;37.08;;;17.13;;
50683;SDS011;36654;45.042;38.994;2023-02-01T07:51:39;32.53;;;14.18;;
50683;SDS011;36654;45.042;38.994;2023-02-01T07:54:05;31.60;;;14.70;;
50683;SDS011;36654;45.042;38.994;2023-02-01T07:56:30;30.15;;;14.80;;
50683;SDS011;36654;45.042;38.994;2023-02-01T07:58:56;35.20;;;15.05;;
50683;SDS011;36654;45.042;38.994;2023-02-01T08:01:25;28.40;;;14.25;;
50683;SDS011;36654;45.042;38.994;2023-02-01T08:03:55;27.65;;;14.25;;
50683;SDS011;36654;45.042;38.994;2023-02-01T08:06:24;26.70;;;13.75;;
50683;SDS011;36654;45.042;38.994;2023-02-01T08:08:51;27.25;;;14.52;;
50683;SDS011;36654;45.042;38.994;2023-02-01T08:11:18;32.17;;;15.05;;
50683;SDS011;36654;45.042;38.994;2023-02-01T08:13:45;30.90;;;15.27;;
50683;SDS011;36654;45.042;38.994;2023-02-01T08:16:11;34.80;;;15.20;;
50683;SDS011;36654;45.042;38.994;2023-02-01T08:18:38;26.33;;;14.88;;
50683;SDS011;36654;45.042;38.994;2023-02-01T08:23:30;33.28;;;15.68;;
50683;SDS011;36654;45.042;38.994;2023-02-01T08:26:06;30.30;;;14.15;;
50683;SDS011;36654;45.042;38.994;2023-02-01T08:28:43;28.63;;;13.15;;
50683;SDS011;36654;45.042;38.994;2023-02-01T08:31:12;33.92;;;14.68;;
50683;SDS011;36654;45.042;38.994;2023-02-01T08:33:40;28.73;;;13.20;;
50683;SDS011;36654;45.042;38.994;2023-02-01T08:36:07;31.05;;;15.23;;
50683;SDS011;36654;45.042;38.994;2023-02-01T08:38:34;28.58;;;14.20;;
50683;SDS011;36654;45.042;38.994;2023-02-01T08:41:05;29.65;;;13.63;;
50683;SDS011;36654;45.042;38.994;2023-02-01T08:43:32;30.65;;;14.40;;
50683;SDS011;36654;45.042;38.994;2023-02-01T08:45:57;29.73;;;13.90;;
50683;SDS011;36654;45.042;38.994;2023-02-01T08:48:23;26.38;;;13.70;;
50683;SDS011;36654;45.042;38.994;2023-02-01T08:50:49;29.52;;;15.10;;
50683;SDS011;36654;45.042;38.994;2023-02-01T08:53:14;29.33;;;13.30;;
50683;SDS011;36654;45.042;38.994;2023-02-01T08:55:40;26.23;;;13.52;;
50683;SDS011;36654;45.042;38.994;2023-02-01T08:58:06;27.45;;;13.27;;
50683;SDS011;36654;45.042;38.994;2023-02-01T09:00:31;24.80;;;13.50;;
50683;SDS011;36654;45.042;38.994;2023-02-01T09:02:57;28.42;;;14.38;;
50683;SDS011;36654;45.042;38.994;2023-02-01T09:05:23;26.27;;;12.55;;
50683;SDS011;36654;45.042;38.994;2023-02-01T09:07:52;26.67;;;14.00;;
50683;SDS011;36654;45.042;38.994;2023-02-01T09:10:18;27.42;;;12.90;;
50683;SDS011;36654;45.042;38.994;2023-02-01T09:12:44;29.30;;;14.70;;
50683;SDS011;36654;45.042;38.994;2023-02-01T09:17:34;30.40;;;14.82;;
50683;SDS011;36654;45.042;38.994;2023-02-01T09:20:01;25.95;;;14.02;;
50683;SDS011;36654;45.042;38.994;2023-02-01T09:22:28;26.67;;;12.68;;
50683;SDS011;36654;45.042;38.994;2023-02-01T09:24:53;25.25;;;13.25;;
50683;SDS011;36654;45.042;38.994;2023-02-01T09:27:19;23.40;;;12.38;;
50683;SDS011;36654;45.042;38.994;2023-02-01T09:29:48;27.83;;;13.05;;
50683;SDS011;36654;45.042;38.994;2023-02-01T09:34:43;28.35;;;13.68;;
50683;SDS011;36654;45.042;38.994;2023-02-01T09:37:08;31.88;;;15.32;;
50683;SDS011;36654;45.042;38.994;2023-02-01T09:39:34;26.67;;;14.20;;
50683;SDS011;36654;45.042;38.994;2023-02-01T09:47:39;28.52;;;14.15;;
50683;SDS011;36654;45.042;38.994;2023-02-01T09:50:18;27.55;;;14.27;;
50683;SDS011;36654;45.042;38.994;2023-02-01T09:52:51;31.40;;;14.18;;
50683;SDS011;36654;45.042;38.994;2023-02-01T09:58:02;29.17;;;14.75;;
50683;SDS011;36654;45.042;38.994;2023-02-01T10:00:36;28.65;;;14.05;;
50683;SDS011;36654;45.042;38.994;2023-02-01T10:03:04;29.02;;;14.50;;
50683;SDS011;36654;45.042;38.994;2023-02-01T10:05:40;27.80;;;13.60;;
50683;SDS011;36654;45.042;38.994;2023-02-01T10:08:36;27.05;;;13.75;;
50683;SDS011;36654;45.042;38.994;2023-02-01T10:11:25;28.83;;;14.55;;
50683;SDS011;36654;45.042;38.994;2023-02-01T10:28:20;22.98;;;12.10;;
50683;SDS011;36654;45.042;38.994;2023-02-01T10:30:48;19.75;;;11.48;;
50683;SDS011;36654;45.042;38.994;2023-02-01T10:35:44;20.90;;;11.70;;
50683;SDS011;36654;45.042;38.994;2023-02-01T10:38:15;23.23;;;12.40;;
50683;SDS011;36654;45.042;38.994;2023-02-01T10:40:50;26.38;;;13.68;;
50683;SDS011;36654;45.042;38.994;2023-02-01T10:43:18;23.10;;;13.18;;
50683;SDS011;36654;45.042;38.994;2023-02-01T10:45:45;22.02;;;11.43;;
50683;SDS011;36654;45.042;38.994;2023-02-01T10:48:10;24.17;;;12.38;;
50683;SDS011;36654;45.042;38.994;2023-02-01T10:55:47;28.15;;;11.55;;
50683;SDS011;36654;45.042;38.994;2023-02-01T10:58:19;23.85;;;11.20;;
50683;SDS011;36654;45.042;38.994;2023-02-01T11:03:59;24.88;;;11.35;;
50683;SDS011;36654;45.042;38.994;2023-02-01T11:08:50;23.65;;;11.48;;
50683;SDS011;36654;45.042;38.994;2023-02-01T11:11:17;22.40;;;12.02;;
50683;SDS011;36654;45.042;38.994;2023-02-01T11:13:43;37.13;;;12.98;;
50683;SDS011;36654;45.042;38.994;2023-02-01T11:16:13;22.75;;;11.15;;
50683;SDS011;36654;45.042;38.994;2023-02-01T11:18:42;18.35;;;10.32;;
50683;SDS011;36654;45.042;38.994;2023-02-01T11:21:08;21.25;;;11.52;;
50683;SDS011;36654;45.042;38.994;2023-02-01T11:23:40;19.63;;;11.07;;
50683;SDS011;36654;45.042;38.994;2023-02-01T11:26:13;24.13;;;11.80;;
50683;SDS011;36654;45.042;38.994;2023-02-01T11:28:47;20.38;;;10.70;;
50683;SDS011;36654;45.042;38.994;2023-02-01T11:31:18;20.50;;;12.13;;
50683;SDS011;36654;45.042;38.994;2023-02-01T11:33:49;25.17;;;11.23;;
50683;SDS011;36654;45.042;38.994;2023-02-01T11:36:20;20.33;;;10.48;;
50683;SDS011;36654;45.042;38.994;2023-02-01T11:38:52;20.27;;;10.23;;
50683;SDS011;36654;45.042;38.994;2023-02-01T11:41:25;20.42;;;9.75;;
50683;SDS011;36654;45.042;38.994;2023-02-01T11:44:05;19.85;;;11.48;;
50683;SDS011;36654;45.042;38.994;2023-02-01T11:46:47;22.40;;;10.73;;
50683;SDS011;36654;45.042;38.994;2023-02-01T11:49:34;20.90;;;9.45;;
50683;SDS011;36654;45.042;38.994;2023-02-01T11:54:38;19.92;;;10.73;;
50683;SDS011;36654;45.042;38.994;2023-02-01T11:57:43;18.58;;;10.95;;
50683;SDS011;36654;45.042;38.994;2023-02-01T12:03:04;24.83;;;11.52;;
50683;SDS011;36654;45.042;38.994;2023-02-01T12:06:39;29.40;;;13.63;;
50683;SDS011;36654;45.042;38.994;2023-02-01T12:31:29;22.40;;;10.52;;
50683;SDS011;36654;45.042;38.994;2023-02-01T12:42:29;22.08;;;11.35;;
50683;SDS011;36654;45.042;38.994;2023-02-01T12:50:03;22.88;;;11.98;;
50683;SDS011;36654;45.042;38.994;2023-02-01T12:52:52;20.85;;;11.10;;
50683;SDS011;36654;45.042;38.994;2023-02-01T12:55:20;23.52;;;11.45;;
50683;SDS011;36654;45.042;38.994;2023-02-01T12:57:50;26.00;;;12.57;;
50683;SDS011;36654;45.042;38.994;2023-02-01T13:00:48;20.83;;;11.52;;
50683;SDS011;36654;45.042;38.994;2023-02-01T13:05:54;19.05;;;10.00;;
50683;SDS011;36654;45.042;38.994;2023-02-01T13:08:25;18.90;;;10.07;;
50683;SDS011;36654;45.042;38.994;2023-02-01T13:13:57;20.55;;;9.32;;
50683;SDS011;36654;45.042;38.994;2023-02-01T13:16:49;20.15;;;11.15;;
50683;SDS011;36654;45.042;38.994;2023-02-01T13:19:28;21.70;;;11.18;;
50683;SDS011;36654;45.042;38.994;2023-02-01T13:22:22;29.15;;;11.52;;
50683;SDS011;36654;45.042;38.994;2023-02-01T13:24:54;21.88;;;10.50;;
50683;SDS011;36654;45.042;38.994;2023-02-01T13:27:23;22.05;;;11.18;;
50683;SDS011;36654;45.042;38.994;2023-02-01T13:29:56;27.88;;;11.50;;
50683;SDS011;36654;45.042;38.994;2023-02-01T13:43:49;29.42;;;11.00;;
50683;SDS011;36654;45.042;38.994;2023-02-01T13:46:18;20.25;;;10.10;;
50683;SDS011;36654;45.042;38.994;2023-02-01T13:48:54;22.60;;;11.48;;
50683;SDS011;36654;45.042;38.994;2023-02-01T13:51:33;22.13;;;11.07;;
50683;SDS011;36654;45.042;38.994;2023-02-01T13:54:07;22.02;;;11.70;;
50683;SDS011;36654;45.042;38.994;2023-02-01T13:56:48;23.23;;;11.38;;
50683;SDS011;36654;45.042;38.994;2023-02-01T14:05:02;23.15;;;11.65;;
50683;SDS011;36654;45.042;38.994;2023-02-01T14:07:29;24.08;;;11.40;;
50683;SDS011;36654;45.042;38.994;2023-02-01T14:09:55;22.58;;;12.10;;
50683;SDS011;36654;45.042;38.994;2023-02-01T14:17:43;25.63;;;11.90;;
50683;SDS011;36654;45.042;38.994;2023-02-01T14:23:13;26.30;;;12.98;;
50683;SDS011;36654;45.042;38.994;2023-02-01T14:25:46;25.48;;;12.38;;
50683;SDS011;36654;45.042;38.994;2023-02-01T14:28:25;25.95;;;13.05;;
50683;SDS011;36654;45.042;38.994;2023-02-01T14:30:54;30.33;;;13.23;;
50683;SDS011;36654;45.042;38.994;2023-02-01T14:35:55;27.30;;;12.30;;
50683;SDS011;36654;45.042;38.994;2023-02-01T14:38:46;35.15;;;13.70;;
50683;SDS011;36654;45.042;38.994;2023-02-01T14:41:33;31.67;;;13.02;;
50683;SDS011;36654;45.042;38.994;2023-02-01T14:49:35;31.85;;;13.32;;
50683;SDS011;36654;45.042;38.994;2023-02-01T14:52:28;29.15;;;13.93;;
50683;SDS011;36654;45.042;38.994;2023-02-01T14:55:00;28.48;;;14.82;;
50683;SDS011;36654;45.042;38.994;2023-02-01T14:57:30;30.65;;;14.88;;
50683;SDS011;36654;45.042;38.994;2023-02-01T15:00:33;28.98;;;14.30;;
50683;SDS011;36654;45.042;38.994;2023-02-01T15:02:55;30.65;;;15.25;;
50683;SDS011;36654;45.042;38.994;2023-02-01T15:05:40;32.88;;;15.93;;
50683;SDS011;36654;45.042;38.994;2023-02-01T15:08:19;37.17;;;17.05;;
50683;SDS011;36654;45.042;38.994;2023-02-01T15:10:50;36.33;;;17.02;;
50683;SDS011;36654;45.042;38.994;2023-02-01T15:13:22;34.47;;;17.63;;
50683;SDS011;36654;45.042;38.994;2023-02-01T15:16:02;39.42;;;17.95;;
50683;SDS011;36654;45.042;38.994;2023-02-01T15:18:30;31.60;;;18.20;;
50683;SDS011;36654;45.042;38.994;2023-02-01T15:20:57;38.28;;;17.58;;
50683;SDS011;36654;45.042;38.994;2023-02-01T15:23:24;41.17;;;19.13;;
50683;SDS011;36654;45.042;38.994;2023-02-01T15:25:50;34.47;;;16.67;;
50683;SDS011;36654;45.042;38.994;2023-02-01T15:28:16;33.10;;;17.33;;
50683;SDS011;36654;45.042;38.994;2023-02-01T15:30:53;33.60;;;16.33;;
50683;SDS011;36654;45.042;38.994;2023-02-01T15:33:23;41.00;;;19.40;;
50683;SDS011;36654;45.042;38.994;2023-02-01T15:35:51;35.78;;;16.88;;
50683;SDS011;36654;45.042;38.994;2023-02-01T15:43:36;32.63;;;15.63;;
50683;SDS011;36654;45.042;38.994;2023-02-01T15:46:08;28.02;;;13.93;;
50683;SDS011;36654;45.042;38.994;2023-02-01T15:48:39;37.35;;;15.18;;
50683;SDS011;36654;45.042;38.994;2023-02-01T15:51:18;29.08;;;14.20;;
50683;SDS011;36654;45.042;38.994;2023-02-01T15:53:47;29.40;;;14.60;;
50683;SDS011;36654;45.042;38.994;2023-02-01T15:56:20;35.58;;;16.38;;
50683;SDS011;36654;45.042;38.994;2023-02-01T15:58:49;28.52;;;15.35;;
50683;SDS011;36654;45.042;38.994;2023-02-01T16:01:17;32.67;;;14.07;;
50683;SDS011;36654;45.042;38.994;2023-02-01T16:03:45;41.00;;;15.00;;
50683;SDS011;36654;45.042;38.994;2023-02-01T16:08:55;30.17;;;15.43;;
50683;SDS011;36654;45.042;38.994;2023-02-01T16:11:26;28.38;;;15.80;;
50683;SDS011;36654;45.042;38.994;2023-02-01T16:13:56;34.22;;;16.27;;
50683;SDS011;36654;45.042;38.994;2023-02-01T16:16:26;29.65;;;15.52;;
50683;SDS011;36654;45.042;38.994;2023-02-01T16:18:53;30.05;;;14.68;;
50683;SDS011;36654;45.042;38.994;2023-02-01T16:21:19;34.53;;;15.63;;
50683;SDS011;36654;45.042;38.994;2023-02-01T16:23:51;33.10;;;14.80;;
50683;SDS011;36654;45.042;38.994;2023-02-01T16:26:18;31.00;;;14.90;;
50683;SDS011;36654;45.042;38.994;2023-02-01T16:28:44;26.15;;;14.50;;
50683;SDS011;36654;45.042;38.994;2023-02-01T16:31:14;32.47;;;16.20;;
50683;SDS011;36654;45.042;38.994;2023-02-01T16:33:48;30.77;;;15.35;;
50683;SDS011;36654;45.042;38.994;2023-02-01T16:36:15;27.48;;;14.25;;
50683;SDS011;36654;45.042;38.994;2023-02-01T16:38:41;28.30;;;14.93;;
50683;SDS011;36654;45.042;38.994;2023-02-01T16:41:09;37.40;;;14.20;;
50683;SDS011;36654;45.042;38.994;2023-02-01T16:43:37;30.15;;;14.75;;
50683;SDS011;36654;45.042;38.994;2023-02-01T16:46:03;31.02;;;15.80;;
50683;SDS011;36654;45.042;38.994;2023-02-01T16:51:02;29.83;;;15.43;;
50683;SDS011;36654;45.042;38.994;2023-02-01T16:53:36;29.33;;;16.48;;
50683;SDS011;36654;45.042;38.994;2023-02-01T16:56:04;32.47;;;16.05;;
50683;SDS011;36654;45.042;38.994;2023-02-01T16:58:47;34.50;;;16.85;;
50683;SDS011;36654;45.042;38.994;2023-02-01T17:01:14;33.72;;;16.42;;
50683;SDS011;36654;45.042;38.994;2023-02-01T17:03:41;33.00;;;16.85;;
50683;SDS011;36654;45.042;38.994;2023-02-01T17:06:10;34.95;;;17.10;;
50683;SDS011;36654;45.042;38.994;2023-02-01T17:08:39;32.15;;;17.40;;
50683;SDS011;36654;45.042;38.994;2023-02-01T17:11:07;34.97;;;15.55;;
50683;SDS011;36654;45.042;38.994;2023-02-01T17:13:35;35.35;;;16.98;;
50683;SDS011;36654;45.042;38.994;2023-02-01T17:16:02;31.98;;;16.70;;
50683;SDS011;36654;45.042;38.994;2023-02-01T17:18:39;32.53;;;15.30;;
50683;SDS011;36654;45.042;38.994;2023-02-01T17:21:04;30.65;;;15.80;;
50683;SDS011;36654;45.042;38.994;2023-02-01T17:23:31;37.25;;;16.50;;